createdAt,value
2018-12-06T00:26:58.210Z,48.86
2018-12-06T00:26:58.784Z,49.15
2018-12-06T00:26:59.383Z,49.65
2018-12-06T00:26:59.985Z,49.53
2018-12-06T00:27:00.584Z,49.63
2018-12-06T00:27:01.184Z,49.63
2018-12-06T00:27:01.783Z,49.72
2018-12-06T00:27:02.383Z,49.34
2018-12-06T00:27:56.886Z,49.34
2018-12-06T00:27:57.461Z,49.24
2018-12-06T00:27:58.060Z,49.24
2018-12-06T00:27:58.660Z,49.34
2018-12-06T00:27:59.261Z,49.24
2018-12-06T00:27:59.860Z,49.24
2018-12-06T00:28:00.460Z,49.34
2018-12-06T00:28:01.060Z,49.34
2018-12-06T00:28:55.565Z,49.05
2018-12-06T00:28:56.136Z,48.86
2018-12-06T00:28:56.737Z,48.96
2018-12-06T00:28:57.340Z,48.86
2018-12-06T00:28:57.936Z,48.96
2018-12-06T00:28:58.537Z,48.80
2018-12-06T00:28:59.136Z,48.99
2018-12-06T00:28:59.736Z,48.89
2018-12-06T00:29:53.215Z,48.86
2018-12-06T00:29:53.792Z,48.89
2018-12-06T00:29:54.393Z,48.68
2018-12-06T00:29:54.991Z,48.77
2018-12-06T00:29:55.589Z,48.86
2018-12-06T00:29:56.189Z,48.89
2018-12-06T00:29:56.790Z,48.80
2018-12-06T00:29:57.389Z,48.80
2018-12-06T00:30:51.891Z,48.77
2018-12-06T00:30:52.466Z,48.58
2018-12-06T00:30:53.066Z,48.68
2018-12-06T00:30:53.665Z,48.89
2018-12-06T00:30:54.265Z,48.86
2018-12-06T00:30:54.870Z,48.89
2018-12-06T00:30:55.466Z,48.58
2018-12-06T00:30:56.063Z,48.58
2018-12-06T00:31:50.567Z,48.70
2018-12-06T00:31:51.143Z,48.80
2018-12-06T00:31:51.742Z,48.61
2018-12-06T00:31:52.342Z,48.68
2018-12-06T00:31:52.942Z,48.70
2018-12-06T00:31:53.541Z,48.80
2018-12-06T00:31:54.141Z,48.70
2018-12-06T00:31:54.741Z,48.70
2018-12-06T00:32:48.219Z,48.30
2018-12-06T00:32:48.795Z,48.13
2018-12-06T00:32:49.396Z,48.32
2018-12-06T00:32:49.995Z,48.39
2018-12-06T00:32:50.595Z,48.41
2018-12-06T00:32:51.194Z,48.41
2018-12-06T00:32:51.794Z,48.30
2018-12-06T00:32:52.393Z,48.32
2018-12-06T00:33:45.872Z,48.32
2018-12-06T00:33:46.448Z,48.32
2018-12-06T00:33:47.046Z,47.94
2018-12-06T00:33:47.646Z,48.32
2018-12-06T00:33:48.246Z,48.49
2018-12-06T00:33:48.845Z,48.41
2018-12-06T00:33:49.445Z,47.94
2018-12-06T00:33:50.047Z,48.32
2018-12-06T00:34:44.549Z,48.41
2018-12-06T00:34:45.123Z,48.41
2018-12-06T00:34:45.724Z,48.22
2018-12-06T00:34:46.322Z,48.32
2018-12-06T00:34:46.922Z,48.39
2018-12-06T00:34:47.523Z,48.13
2018-12-06T00:34:48.121Z,48.41
2018-12-06T00:34:48.722Z,48.13
2018-12-06T00:35:43.224Z,48.13
2018-12-06T00:35:43.797Z,48.13
2018-12-06T00:35:44.398Z,48.13
2018-12-06T00:35:44.997Z,48.22
2018-12-06T00:35:45.597Z,48.22
2018-12-06T00:35:46.200Z,48.32
2018-12-06T00:35:46.797Z,48.13
2018-12-06T00:35:47.398Z,48.13
2018-12-06T00:36:40.877Z,48.22
2018-12-06T00:36:41.450Z,48.22
2018-12-06T00:36:42.050Z,48.32
2018-12-06T00:36:42.651Z,48.32
2018-12-06T00:36:43.252Z,48.22
2018-12-06T00:36:43.849Z,48.22
2018-12-06T00:36:44.454Z,48.22
2018-12-06T00:36:45.050Z,48.32
2018-12-06T00:37:39.554Z,48.22
2018-12-06T00:37:40.126Z,48.32
2018-12-06T00:37:40.725Z,48.22
2018-12-06T00:37:41.325Z,48.22
2018-12-06T00:37:41.926Z,48.32
2018-12-06T00:37:42.525Z,48.22
2018-12-06T00:37:43.128Z,48.32
2018-12-06T00:37:43.726Z,48.32
2018-12-06T00:38:38.227Z,48.51
2018-12-06T00:38:38.802Z,48.41
2018-12-06T00:38:39.401Z,48.41
2018-12-06T00:38:40.002Z,48.41
2018-12-06T00:38:40.599Z,48.41
2018-12-06T00:38:41.201Z,48.51
2018-12-06T00:38:41.801Z,48.41
2018-12-06T00:38:42.399Z,48.32
2018-12-06T00:39:36.906Z,48.80
2018-12-06T00:39:37.477Z,48.70
2018-12-06T00:39:38.078Z,48.80
2018-12-06T00:39:38.677Z,48.80
2018-12-06T00:39:39.278Z,48.80
2018-12-06T00:39:39.876Z,48.80
2018-12-06T00:39:40.475Z,48.70
2018-12-06T00:39:41.078Z,48.70
2018-12-06T00:40:34.558Z,48.99
2018-12-06T00:40:35.131Z,48.99
2018-12-06T00:40:35.730Z,48.80
2018-12-06T00:40:36.329Z,48.51
2018-12-06T00:40:36.930Z,48.99
2018-12-06T00:40:37.529Z,48.99
2018-12-06T00:40:38.131Z,48.51
2018-12-06T00:40:38.729Z,48.70
2018-12-06T00:41:33.232Z,49.37
2018-12-06T00:41:33.806Z,49.08
2018-12-06T00:41:34.407Z,49.37
2018-12-06T00:41:35.004Z,49.18
2018-12-06T00:41:35.603Z,49.37
2018-12-06T00:41:36.206Z,49.27
2018-12-06T00:41:36.803Z,49.27
2018-12-06T00:41:37.404Z,49.27
2018-12-06T00:42:30.881Z,49.37
2018-12-06T00:42:31.458Z,49.08
2018-12-06T00:42:32.058Z,49.18
2018-12-06T00:42:32.657Z,49.18
2018-12-06T00:42:33.256Z,49.18
2018-12-06T00:42:33.856Z,49.08
2018-12-06T00:42:34.457Z,49.18
2018-12-06T00:42:35.057Z,49.18
2018-12-06T00:43:29.568Z,49.84
2018-12-06T00:43:30.132Z,49.84
2018-12-06T00:43:30.735Z,49.74
2018-12-06T00:43:31.332Z,49.55
2018-12-06T00:43:31.931Z,49.93
2018-12-06T00:43:32.535Z,49.74
2018-12-06T00:43:33.131Z,49.74
2018-12-06T00:43:33.732Z,49.74
2018-12-06T00:44:28.238Z,50.31
2018-12-06T00:44:28.809Z,49.93
2018-12-06T00:44:29.408Z,49.93
2018-12-06T00:44:30.007Z,49.93
2018-12-06T00:44:30.607Z,49.93
2018-12-06T00:44:31.208Z,50.03
2018-12-06T00:44:31.807Z,50.03
2018-12-06T00:44:32.408Z,50.03
2018-12-06T00:45:26.919Z,50.60
2018-12-06T00:45:27.484Z,50.70
2018-12-06T00:45:28.085Z,50.70
2018-12-06T00:45:28.684Z,50.60
2018-12-06T00:45:29.283Z,50.60
2018-12-06T00:45:29.887Z,50.70
2018-12-06T00:45:30.485Z,50.70
2018-12-06T00:45:31.086Z,50.60
2018-12-06T00:46:24.560Z,50.41
2018-12-06T00:46:25.138Z,50.51
2018-12-06T00:46:25.739Z,50.51
2018-12-06T00:46:26.337Z,50.51
2018-12-06T00:46:26.937Z,50.41
2018-12-06T00:46:27.536Z,50.60
2018-12-06T00:46:28.136Z,50.70
2018-12-06T00:46:28.739Z,50.51
2018-12-06T00:47:23.243Z,51.26
2018-12-06T00:47:23.811Z,51.45
2018-12-06T00:47:24.411Z,51.55
2018-12-06T00:47:25.011Z,51.55
2018-12-06T00:47:25.611Z,51.55
2018-12-06T00:47:26.210Z,51.45
2018-12-06T00:47:26.814Z,51.36
2018-12-06T00:47:27.411Z,51.36
2018-12-06T00:48:20.888Z,51.26
2018-12-06T00:48:21.464Z,51.26
2018-12-06T00:48:22.064Z,51.55
2018-12-06T00:48:22.663Z,51.55
2018-12-06T00:48:23.264Z,51.55
2018-12-06T00:48:23.863Z,51.26
2018-12-06T00:48:24.464Z,51.64
2018-12-06T00:48:25.062Z,51.36
2018-12-06T00:49:19.565Z,51.93
2018-12-06T00:49:20.138Z,51.83
2018-12-06T00:49:20.737Z,51.93
2018-12-06T00:49:21.337Z,51.93
2018-12-06T00:49:21.937Z,51.83
2018-12-06T00:49:22.537Z,51.93
2018-12-06T00:49:23.137Z,51.93
2018-12-06T00:49:23.738Z,51.74
2018-12-06T00:50:29.912Z,52.78
2018-12-06T00:50:30.489Z,52.87
2018-12-06T00:50:31.089Z,52.69
2018-12-06T00:50:31.689Z,52.78
2018-12-06T00:50:32.288Z,52.78
2018-12-06T00:50:32.888Z,52.97
2018-12-06T00:50:33.492Z,52.87
2018-12-06T00:50:34.088Z,53.07
2018-12-06T00:51:28.625Z,54.02
2018-12-06T00:51:29.164Z,54.11
2018-12-06T00:51:29.767Z,54.11
2018-12-06T00:51:30.366Z,54.21
2018-12-06T00:51:30.965Z,54.02
2018-12-06T00:51:31.563Z,54.30
2018-12-06T00:51:32.164Z,54.02
2018-12-06T00:51:32.769Z,54.11
2018-12-06T00:52:27.269Z,54.30
2018-12-06T00:52:27.841Z,54.21
2018-12-06T00:52:28.440Z,54.30
2018-12-06T00:52:29.045Z,54.68
2018-12-06T00:52:29.640Z,54.68
2018-12-06T00:52:30.239Z,54.68
2018-12-06T00:52:30.839Z,54.11
2018-12-06T00:52:31.442Z,54.58
2018-12-06T00:53:25.942Z,54.68
2018-12-06T00:53:26.516Z,54.97
2018-12-06T00:53:27.115Z,54.97
2018-12-06T00:53:27.715Z,54.97
2018-12-06T00:53:28.315Z,54.87
2018-12-06T00:53:28.918Z,54.97
2018-12-06T00:53:29.515Z,55.06
2018-12-06T00:53:30.114Z,55.06
2018-12-06T00:54:23.592Z,55.91
2018-12-06T00:54:24.168Z,56.20
2018-12-06T00:54:24.767Z,56.20
2018-12-06T00:54:25.367Z,56.10
2018-12-06T00:54:25.972Z,56.20
2018-12-06T00:54:26.566Z,56.10
2018-12-06T00:54:27.167Z,56.10
2018-12-06T00:54:27.767Z,56.20
2018-12-06T00:55:21.246Z,56.77
2018-12-06T00:55:21.819Z,56.77
2018-12-06T00:55:22.427Z,56.77
2018-12-06T00:55:23.019Z,56.77
2018-12-06T00:55:23.620Z,56.77
2018-12-06T00:55:24.219Z,56.77
2018-12-06T00:55:24.819Z,56.77
2018-12-06T00:55:25.419Z,56.77
2018-12-06T00:56:19.921Z,58.00
2018-12-06T00:56:20.497Z,58.00
2018-12-06T00:56:21.094Z,57.91
2018-12-06T00:56:21.694Z,57.91
2018-12-06T00:56:22.297Z,57.81
2018-12-06T00:56:22.894Z,58.10
2018-12-06T00:56:23.494Z,57.91
2018-12-06T00:56:24.093Z,58.10
2018-12-06T00:57:17.573Z,59.33
2018-12-06T00:57:18.147Z,59.33
2018-12-06T00:57:18.747Z,59.33
2018-12-06T00:57:19.347Z,59.33
2018-12-06T00:57:19.946Z,59.24
2018-12-06T00:57:20.546Z,59.33
2018-12-06T00:57:21.146Z,59.05
2018-12-06T00:57:21.745Z,59.05
2018-12-06T00:58:16.252Z,60.28
2018-12-06T00:58:16.822Z,60.10
2018-12-06T00:58:17.421Z,60.10
2018-12-06T00:58:18.022Z,60.10
2018-12-06T00:58:18.621Z,60.10
2018-12-06T00:58:19.220Z,60.19
2018-12-06T00:58:19.821Z,60.00
2018-12-06T00:58:20.425Z,60.19
2018-12-06T00:59:14.923Z,61.80
2018-12-06T00:59:15.498Z,61.80
2018-12-06T00:59:16.097Z,61.71
2018-12-06T00:59:16.697Z,61.80
2018-12-06T00:59:17.297Z,61.61
2018-12-06T00:59:17.897Z,61.52
2018-12-06T00:59:18.496Z,61.52
2018-12-06T00:59:19.096Z,61.52
2018-12-06T01:00:12.579Z,62.56
2018-12-06T01:00:13.151Z,62.46
2018-12-06T01:00:13.750Z,62.27
2018-12-06T01:00:14.349Z,62.27
2018-12-06T01:00:14.949Z,62.37
2018-12-06T01:00:15.549Z,62.66
2018-12-06T01:00:16.149Z,62.46
2018-12-06T01:00:16.748Z,62.75
2018-12-06T01:01:10.228Z,63.89
2018-12-06T01:01:10.803Z,63.79
2018-12-06T01:01:11.403Z,63.89
2018-12-06T01:01:12.002Z,63.89
2018-12-06T01:01:12.602Z,63.98
2018-12-06T01:01:13.200Z,63.89
2018-12-06T01:01:13.801Z,63.89
2018-12-06T01:01:14.401Z,63.98
2018-12-06T01:02:08.904Z,64.30
2018-12-06T01:02:09.478Z,64.37
2018-12-06T01:02:10.076Z,64.27
2018-12-06T01:02:10.677Z,64.30
2018-12-06T01:02:11.278Z,64.17
2018-12-06T01:02:11.876Z,64.27
2018-12-06T01:02:12.477Z,64.27
2018-12-06T01:02:13.076Z,64.27
2018-12-06T01:03:07.579Z,64.59
2018-12-06T01:03:08.153Z,64.78
2018-12-06T01:03:08.752Z,64.84
2018-12-06T01:03:09.353Z,64.94
2018-12-06T01:03:09.952Z,64.94
2018-12-06T01:03:10.551Z,65.06
2018-12-06T01:03:11.154Z,65.03
2018-12-06T01:03:11.752Z,64.97
2018-12-06T01:04:05.230Z,65.79
2018-12-06T01:04:05.804Z,65.82
2018-12-06T01:04:06.404Z,65.69
2018-12-06T01:04:07.005Z,65.73
2018-12-06T01:04:07.604Z,65.73
2018-12-06T01:04:08.204Z,65.88
2018-12-06T01:04:08.804Z,66.30
2018-12-06T01:04:09.404Z,65.79
2018-12-06T01:05:03.905Z,66.96
2018-12-06T01:05:04.480Z,67.06
2018-12-06T01:05:05.079Z,67.15
2018-12-06T01:05:05.679Z,67.12
2018-12-06T01:05:06.280Z,67.15
2018-12-06T01:05:06.879Z,67.15
2018-12-06T01:05:07.479Z,67.25
2018-12-06T01:05:08.079Z,66.96
2018-12-06T01:06:01.558Z,68.48
2018-12-06T01:06:02.132Z,68.10
2018-12-06T01:06:02.732Z,68.44
2018-12-06T01:06:03.333Z,68.29
2018-12-06T01:06:03.931Z,68.29
2018-12-06T01:06:04.531Z,68.19
2018-12-06T01:06:05.132Z,68.29
2018-12-06T01:06:05.731Z,68.01
2018-12-06T01:06:59.211Z,69.24
2018-12-06T01:06:59.784Z,69.24
2018-12-06T01:07:00.384Z,69.71
2018-12-06T01:07:00.984Z,69.71
2018-12-06T01:07:01.584Z,69.34
2018-12-06T01:07:02.184Z,69.81
2018-12-06T01:07:02.787Z,69.81
2018-12-06T01:07:03.384Z,69.71
2018-12-06T01:07:56.861Z,70.19
2018-12-06T01:07:57.436Z,69.91
2018-12-06T01:07:58.036Z,69.91
2018-12-06T01:07:58.636Z,70.00
2018-12-06T01:07:59.236Z,70.00
2018-12-06T01:07:59.836Z,69.91
2018-12-06T01:08:00.440Z,69.91
2018-12-06T01:08:01.035Z,70.10
2018-12-06T01:08:54.518Z,71.48
2018-12-06T01:08:55.088Z,70.76
2018-12-06T01:08:55.686Z,71.04
2018-12-06T01:08:56.287Z,71.43
2018-12-06T01:08:56.893Z,71.23
2018-12-06T01:08:57.486Z,71.33
2018-12-06T01:08:58.085Z,71.33
2018-12-06T01:08:58.686Z,71.33
2018-12-06T01:09:52.163Z,71.90
2018-12-06T01:09:52.738Z,71.90
2018-12-06T01:09:53.339Z,71.62
2018-12-06T01:09:53.939Z,71.71
2018-12-06T01:09:54.538Z,71.90
2018-12-06T01:09:55.139Z,71.81
2018-12-06T01:09:55.740Z,71.52
2018-12-06T01:09:56.341Z,71.71
2018-12-06T01:10:49.817Z,72.75
2018-12-06T01:10:50.391Z,72.85
2018-12-06T01:10:50.995Z,72.75
2018-12-06T01:10:51.590Z,72.85
2018-12-06T01:10:52.191Z,72.85
2018-12-06T01:10:52.790Z,72.85
2018-12-06T01:10:53.394Z,72.75
2018-12-06T01:10:53.992Z,72.75
2018-12-06T01:11:48.493Z,73.52
2018-12-06T01:11:49.067Z,73.61
2018-12-06T01:11:49.665Z,73.52
2018-12-06T01:11:50.265Z,73.71
2018-12-06T01:11:50.865Z,73.71
2018-12-06T01:11:51.465Z,73.23
2018-12-06T01:11:52.066Z,73.71
2018-12-06T01:11:52.665Z,73.52
2018-12-06T01:12:46.144Z,74.56
2018-12-06T01:12:46.718Z,74.56
2018-12-06T01:12:47.320Z,74.56
2018-12-06T01:12:47.918Z,74.47
2018-12-06T01:12:48.519Z,74.37
2018-12-06T01:12:49.118Z,74.37
2018-12-06T01:12:49.719Z,74.37
2018-12-06T01:12:50.321Z,74.08
2018-12-06T01:13:44.820Z,75.23
2018-12-06T01:13:45.394Z,75.32
2018-12-06T01:13:45.993Z,75.13
2018-12-06T01:13:46.662Z,75.04
2018-12-06T01:13:47.195Z,75.60
2018-12-06T01:13:47.793Z,75.23
2018-12-06T01:13:48.393Z,75.32
2018-12-06T01:13:48.992Z,75.32
2018-12-06T01:14:43.495Z,76.37
2018-12-06T01:14:44.163Z,76.37
2018-12-06T01:14:44.668Z,75.99
2018-12-06T01:14:45.270Z,76.18
2018-12-06T01:14:45.868Z,76.27
2018-12-06T01:14:46.468Z,76.18
2018-12-06T01:14:47.069Z,75.70
2018-12-06T01:14:47.668Z,76.37
2018-12-06T01:15:42.173Z,76.27
2018-12-06T01:15:42.748Z,76.27
2018-12-06T01:15:43.345Z,76.27
2018-12-06T01:15:43.945Z,76.27
2018-12-06T01:15:44.544Z,76.08
2018-12-06T01:15:45.146Z,76.27
2018-12-06T01:15:45.744Z,76.56
2018-12-06T01:15:46.345Z,76.08
2018-12-06T01:16:40.846Z,76.56
2018-12-06T01:16:41.421Z,76.56
2018-12-06T01:16:42.021Z,76.56
2018-12-06T01:16:42.620Z,76.56
2018-12-06T01:16:43.220Z,76.56
2018-12-06T01:16:43.819Z,76.56
2018-12-06T01:16:44.421Z,76.65
2018-12-06T01:16:45.020Z,76.65
2018-12-06T01:17:39.524Z,77.79
2018-12-06T01:17:40.096Z,77.60
2018-12-06T01:17:40.698Z,77.22
2018-12-06T01:17:41.295Z,77.60
2018-12-06T01:17:41.899Z,77.31
2018-12-06T01:17:42.496Z,77.79
2018-12-06T01:17:43.095Z,77.60
2018-12-06T01:17:43.696Z,77.70
2018-12-06T01:18:37.175Z,77.70
2018-12-06T01:18:37.748Z,77.60
2018-12-06T01:18:38.349Z,77.70
2018-12-06T01:18:38.948Z,77.60
2018-12-06T01:18:39.549Z,77.98
2018-12-06T01:18:40.148Z,77.70
2018-12-06T01:18:40.748Z,77.70
2018-12-06T01:18:41.353Z,77.70
2018-12-06T01:19:35.851Z,78.83
2018-12-06T01:19:36.429Z,78.64
2018-12-06T01:19:37.024Z,78.64
2018-12-06T01:19:37.626Z,78.74
2018-12-06T01:19:38.223Z,78.93
2018-12-06T01:19:38.823Z,79.03
2018-12-06T01:19:39.424Z,78.93
2018-12-06T01:19:40.023Z,79.03
2018-12-06T01:20:34.525Z,79.12
2018-12-06T01:20:35.099Z,79.03
2018-12-06T01:20:35.697Z,79.22
2018-12-06T01:20:36.299Z,79.12
2018-12-06T01:20:36.899Z,79.22
2018-12-06T01:20:37.498Z,79.12
2018-12-06T01:20:38.097Z,79.12
2018-12-06T01:20:38.697Z,79.12
2018-12-06T01:21:33.200Z,79.12
2018-12-06T01:21:33.775Z,79.12
2018-12-06T01:21:34.378Z,79.12
2018-12-06T01:21:34.975Z,79.31
2018-12-06T01:21:35.574Z,79.12
2018-12-06T01:21:36.176Z,79.31
2018-12-06T01:21:36.774Z,79.12
2018-12-06T01:21:37.374Z,79.12
2018-12-06T01:22:30.852Z,79.79
2018-12-06T01:22:31.429Z,79.79
2018-12-06T01:22:32.028Z,79.69
2018-12-06T01:22:32.627Z,79.69
2018-12-06T01:22:33.228Z,79.79
2018-12-06T01:22:33.827Z,79.69
2018-12-06T01:22:34.426Z,79.79
2018-12-06T01:22:35.029Z,79.79
2018-12-06T01:23:28.504Z,79.97
2018-12-06T01:23:29.080Z,80.26
2018-12-06T01:23:29.679Z,79.88
2018-12-06T01:23:30.282Z,79.97
2018-12-06T01:23:30.879Z,80.16
2018-12-06T01:23:31.479Z,80.07
2018-12-06T01:23:32.079Z,80.16
2018-12-06T01:23:32.679Z,80.16
2018-12-06T01:24:27.182Z,80.55
2018-12-06T01:24:27.754Z,80.45
2018-12-06T01:24:28.354Z,80.55
2018-12-06T01:24:28.954Z,80.64
2018-12-06T01:24:29.554Z,80.74
2018-12-06T01:24:30.153Z,80.55
2018-12-06T01:24:30.753Z,80.16
2018-12-06T01:24:31.353Z,80.74
2018-12-06T01:25:25.856Z,81.21
2018-12-06T01:25:26.430Z,81.02
2018-12-06T01:25:27.030Z,81.30
2018-12-06T01:25:27.629Z,81.40
2018-12-06T01:25:28.231Z,81.12
2018-12-06T01:25:28.830Z,81.02
2018-12-06T01:25:29.430Z,81.21
2018-12-06T01:25:30.029Z,81.02
2018-12-06T01:26:24.532Z,81.49
2018-12-06T01:26:25.106Z,81.30
2018-12-06T01:26:25.705Z,81.49
2018-12-06T01:26:26.305Z,81.68
2018-12-06T01:26:26.905Z,81.30
2018-12-06T01:26:27.505Z,81.68
2018-12-06T01:26:28.105Z,81.30
2018-12-06T01:26:28.738Z,81.30
2018-12-06T01:27:23.210Z,82.26
2018-12-06T01:27:23.781Z,82.26
2018-12-06T01:27:24.380Z,82.16
2018-12-06T01:27:24.982Z,82.16
2018-12-06T01:27:25.580Z,82.16
2018-12-06T01:27:26.181Z,82.16
2018-12-06T01:27:26.780Z,82.16
2018-12-06T01:27:27.380Z,81.97
2018-12-06T01:28:20.859Z,82.45
2018-12-06T01:28:21.434Z,82.45
2018-12-06T01:28:22.033Z,82.45
2018-12-06T01:28:22.633Z,82.45
2018-12-06T01:28:23.233Z,82.45
2018-12-06T01:28:23.833Z,82.45
2018-12-06T01:28:24.433Z,82.54
2018-12-06T01:28:25.033Z,81.97
2018-12-06T01:29:18.512Z,82.64
2018-12-06T01:29:19.085Z,83.11
2018-12-06T01:29:19.689Z,82.73
2018-12-06T01:29:20.287Z,83.11
2018-12-06T01:29:20.884Z,83.20
2018-12-06T01:29:21.485Z,82.73
2018-12-06T01:29:22.084Z,82.73
2018-12-06T01:29:22.685Z,83.11
2018-12-06T01:30:17.192Z,83.49
2018-12-06T01:30:17.762Z,83.49
2018-12-06T01:30:18.361Z,83.49
2018-12-06T01:30:18.961Z,83.49
2018-12-06T01:30:19.561Z,83.30
2018-12-06T01:30:20.159Z,83.49
2018-12-06T01:30:20.760Z,83.49
2018-12-06T01:30:21.360Z,83.30
2018-12-06T01:31:14.837Z,83.87
2018-12-06T01:31:15.412Z,83.87
2018-12-06T01:31:16.013Z,83.59
2018-12-06T01:31:16.613Z,83.59
2018-12-06T01:31:17.218Z,83.68
2018-12-06T01:31:17.811Z,83.97
2018-12-06T01:31:18.501Z,83.87
2018-12-06T01:31:19.012Z,83.68
2018-12-06T01:32:13.515Z,84.53
2018-12-06T01:32:14.088Z,84.25
2018-12-06T01:32:14.688Z,84.53
2018-12-06T01:32:15.287Z,84.25
2018-12-06T01:32:15.892Z,84.25
2018-12-06T01:32:16.487Z,84.63
2018-12-06T01:32:17.087Z,84.25
2018-12-06T01:32:17.687Z,84.25
2018-12-06T01:33:11.165Z,84.63
2018-12-06T01:33:11.741Z,84.44
2018-12-06T01:33:12.339Z,84.44
2018-12-06T01:33:12.940Z,84.44
2018-12-06T01:33:13.539Z,84.63
2018-12-06T01:33:14.139Z,84.63
2018-12-06T01:33:14.738Z,84.53
2018-12-06T01:33:15.340Z,84.63
2018-12-06T01:34:08.817Z,84.63
2018-12-06T01:34:09.391Z,84.53
2018-12-06T01:34:09.991Z,84.53
2018-12-06T01:34:10.591Z,84.44
2018-12-06T01:34:11.191Z,84.16
2018-12-06T01:34:11.791Z,84.63
2018-12-06T01:34:12.391Z,84.53
2018-12-06T01:34:12.991Z,84.53
2018-12-06T01:35:06.472Z,84.25
2018-12-06T01:35:07.044Z,84.16
2018-12-06T01:35:07.648Z,84.34
2018-12-06T01:35:08.244Z,84.06
2018-12-06T01:35:08.843Z,84.25
2018-12-06T01:35:09.443Z,84.34
2018-12-06T01:35:10.042Z,84.44
2018-12-06T01:35:10.642Z,84.16
2018-12-06T01:36:04.122Z,84.44
2018-12-06T01:36:04.695Z,84.34
2018-12-06T01:36:05.296Z,84.34
2018-12-06T01:36:05.895Z,84.34
2018-12-06T01:36:06.494Z,84.63
2018-12-06T01:36:07.095Z,84.34
2018-12-06T01:36:07.694Z,84.63
2018-12-06T01:36:08.294Z,84.63
2018-12-06T01:37:01.772Z,83.68
2018-12-06T01:37:02.347Z,83.68
2018-12-06T01:37:02.947Z,83.59
2018-12-06T01:37:03.547Z,83.59
2018-12-06T01:37:04.147Z,83.59
2018-12-06T01:37:04.746Z,83.39
2018-12-06T01:37:05.415Z,83.68
2018-12-06T01:37:05.947Z,83.59
2018-12-06T01:37:59.425Z,83.39
2018-12-06T01:37:59.999Z,83.78
2018-12-06T01:38:00.598Z,83.97
2018-12-06T01:38:01.199Z,83.78
2018-12-06T01:38:01.798Z,83.68
2018-12-06T01:38:02.398Z,83.78
2018-12-06T01:38:02.997Z,83.59
2018-12-06T01:38:03.598Z,83.59
2018-12-06T01:38:57.075Z,84.25
2018-12-06T01:38:57.656Z,84.25
2018-12-06T01:38:58.251Z,84.34
2018-12-06T01:38:58.850Z,84.44
2018-12-06T01:38:59.451Z,84.34
2018-12-06T01:39:00.051Z,84.25
2018-12-06T01:39:00.650Z,84.25
2018-12-06T01:39:01.250Z,84.25
2018-12-06T01:39:55.753Z,84.44
2018-12-06T01:39:56.328Z,84.34
2018-12-06T01:39:56.925Z,84.44
2018-12-06T01:39:57.525Z,84.72
2018-12-06T01:39:58.127Z,84.72
2018-12-06T01:39:58.725Z,84.34
2018-12-06T01:39:59.324Z,84.25
2018-12-06T01:39:59.924Z,84.34
2018-12-06T01:40:54.427Z,84.53
2018-12-06T01:40:55.002Z,84.53
2018-12-06T01:40:55.601Z,84.63
2018-12-06T01:40:56.201Z,84.44
2018-12-06T01:40:56.801Z,85.01
2018-12-06T01:40:57.401Z,84.91
2018-12-06T01:40:58.003Z,84.91
2018-12-06T01:40:58.602Z,84.91
2018-12-06T01:41:52.088Z,84.91
2018-12-06T01:41:52.653Z,84.72
2018-12-06T01:41:53.252Z,84.72
2018-12-06T01:41:53.851Z,84.72
2018-12-06T01:41:54.451Z,84.82
2018-12-06T01:41:55.053Z,84.82
2018-12-06T01:41:55.651Z,84.91
2018-12-06T01:41:56.251Z,84.72
2018-12-06T01:42:50.755Z,85.01
2018-12-06T01:42:51.332Z,84.63
2018-12-06T01:42:51.929Z,85.01
2018-12-06T01:42:52.528Z,84.91
2018-12-06T01:42:53.129Z,84.63
2018-12-06T01:42:53.728Z,84.91
2018-12-06T01:42:54.327Z,84.91
2018-12-06T01:42:54.928Z,84.91
2018-12-06T01:43:49.435Z,85.01
2018-12-06T01:43:50.004Z,84.91
2018-12-06T01:43:50.606Z,84.91
2018-12-06T01:43:51.204Z,84.91
2018-12-06T01:43:51.804Z,84.91
2018-12-06T01:43:52.404Z,84.91
2018-12-06T01:43:53.003Z,85.01
2018-12-06T01:43:53.603Z,84.91
2018-12-06T01:44:48.106Z,84.82
2018-12-06T01:44:48.680Z,85.20
2018-12-06T01:44:49.280Z,85.01
2018-12-06T01:44:49.879Z,84.72
2018-12-06T01:44:50.480Z,84.82
2018-12-06T01:44:51.078Z,84.82
2018-12-06T01:44:51.680Z,84.82
2018-12-06T01:44:52.279Z,85.49
2018-12-06T01:45:46.782Z,85.30
2018-12-06T01:45:47.430Z,85.58
2018-12-06T01:45:47.955Z,85.49
2018-12-06T01:45:48.555Z,85.20
2018-12-06T01:45:49.155Z,85.58
2018-12-06T01:45:49.755Z,85.58
2018-12-06T01:45:50.355Z,85.30
2018-12-06T01:45:50.954Z,85.49
2018-12-06T01:46:45.457Z,85.39
2018-12-06T01:46:46.032Z,85.39
2018-12-06T01:46:46.631Z,85.39
2018-12-06T01:46:47.232Z,85.49
2018-12-06T01:46:47.831Z,85.39
2018-12-06T01:46:48.431Z,85.39
2018-12-06T01:46:49.031Z,85.39
2018-12-06T01:46:49.641Z,85.58
2018-12-06T01:47:43.114Z,84.72
2018-12-06T01:47:43.683Z,84.82
2018-12-06T01:47:44.283Z,84.91
2018-12-06T01:47:44.885Z,84.91
2018-12-06T01:47:45.482Z,85.11
2018-12-06T01:47:46.083Z,84.72
2018-12-06T01:47:46.684Z,84.82
2018-12-06T01:47:47.282Z,85.01
2018-12-06T01:48:40.762Z,84.16
2018-12-06T01:48:41.335Z,84.16
2018-12-06T01:48:41.935Z,84.25
2018-12-06T01:48:42.536Z,84.16
2018-12-06T01:48:43.139Z,84.16
2018-12-06T01:48:43.738Z,84.16
2018-12-06T01:48:44.333Z,84.16
2018-12-06T01:48:44.933Z,84.16
2018-12-06T01:49:38.412Z,84.16
2018-12-06T01:49:38.987Z,84.16
2018-12-06T01:49:39.586Z,84.44
2018-12-06T01:49:40.189Z,83.97
2018-12-06T01:49:40.786Z,84.06
2018-12-06T01:49:41.386Z,84.34
2018-12-06T01:49:41.989Z,84.16
2018-12-06T01:49:42.588Z,84.16
2018-12-06T01:50:37.089Z,84.34
2018-12-06T01:50:37.771Z,84.25
2018-12-06T01:50:38.262Z,84.53
2018-12-06T01:50:38.862Z,84.25
2018-12-06T01:50:39.464Z,84.25
2018-12-06T01:50:40.061Z,84.06
2018-12-06T01:50:40.662Z,84.25
2018-12-06T01:50:41.261Z,84.25
2018-12-06T01:51:35.766Z,84.53
2018-12-06T01:51:36.338Z,84.53
2018-12-06T01:51:36.937Z,84.53
2018-12-06T01:51:37.540Z,84.53
2018-12-06T01:51:38.138Z,84.44
2018-12-06T01:51:38.737Z,84.44
2018-12-06T01:51:39.335Z,84.44
2018-12-06T01:51:39.937Z,84.53
2018-12-06T01:52:34.439Z,84.25
2018-12-06T01:52:35.016Z,84.25
2018-12-06T01:52:35.613Z,84.34
2018-12-06T01:52:36.214Z,84.63
2018-12-06T01:52:36.814Z,84.16
2018-12-06T01:52:37.413Z,84.63
2018-12-06T01:52:38.013Z,84.34
2018-12-06T01:52:38.614Z,84.16
2018-12-06T01:53:32.091Z,84.44
2018-12-06T01:53:32.667Z,84.25
2018-12-06T01:53:33.266Z,84.25
2018-12-06T01:53:33.865Z,84.16
2018-12-06T01:53:34.465Z,84.16
2018-12-06T01:53:35.065Z,84.25
2018-12-06T01:53:35.665Z,84.16
2018-12-06T01:53:36.264Z,84.16
2018-12-06T01:54:30.767Z,84.82
2018-12-06T01:54:31.341Z,84.91
2018-12-06T01:54:31.940Z,84.91
2018-12-06T01:54:32.541Z,84.53
2018-12-06T01:54:33.141Z,84.82
2018-12-06T01:54:33.740Z,84.91
2018-12-06T01:54:34.341Z,84.91
2018-12-06T01:54:34.941Z,84.91
2018-12-06T01:55:29.443Z,85.30
2018-12-06T01:55:30.016Z,85.30
2018-12-06T01:55:30.617Z,85.39
2018-12-06T01:55:31.215Z,85.20
2018-12-06T01:55:31.816Z,85.11
2018-12-06T01:55:32.417Z,85.11
2018-12-06T01:55:33.015Z,84.72
2018-12-06T01:55:33.617Z,85.20
2018-12-06T01:56:28.118Z,85.49
2018-12-06T01:56:28.691Z,85.49
2018-12-06T01:56:29.291Z,85.01
2018-12-06T01:56:29.890Z,85.49
2018-12-06T01:56:30.490Z,85.39
2018-12-06T01:56:31.093Z,84.91
2018-12-06T01:56:31.689Z,85.49
2018-12-06T01:56:32.290Z,85.49
2018-12-06T01:57:26.794Z,84.82
2018-12-06T01:57:27.367Z,84.91
2018-12-06T01:57:27.967Z,84.72
2018-12-06T01:57:28.567Z,84.72
2018-12-06T01:57:29.166Z,84.82
2018-12-06T01:57:29.767Z,84.63
2018-12-06T01:57:30.369Z,84.72
2018-12-06T01:57:30.967Z,84.63
2018-12-06T01:58:25.470Z,84.91
2018-12-06T01:58:26.044Z,84.91
2018-12-06T01:58:26.642Z,84.91
2018-12-06T01:58:27.243Z,84.91
2018-12-06T01:58:27.843Z,84.91
2018-12-06T01:58:28.442Z,85.01
2018-12-06T01:58:29.044Z,84.91
2018-12-06T01:58:29.642Z,85.01
2018-12-06T01:59:24.148Z,84.34
2018-12-06T01:59:24.719Z,84.34
2018-12-06T01:59:25.319Z,84.34
2018-12-06T01:59:25.919Z,84.53
2018-12-06T01:59:26.519Z,84.63
2018-12-06T01:59:27.119Z,84.34
2018-12-06T01:59:27.719Z,84.34
2018-12-06T01:59:28.318Z,84.34
2018-12-06T02:00:21.796Z,84.44
2018-12-06T02:00:22.371Z,84.53
2018-12-06T02:00:22.971Z,84.53
2018-12-06T02:00:23.571Z,84.34
2018-12-06T02:00:24.172Z,84.44